Orbital elements of COSMOS 2251 DEB
| Launched | 15 June 1993 |
| Flight ended | – |
| Launch site | Plesetsk Missile and Space Complex, Russia |
| Owner | Commonwealth of Independent States (former USSR) |
| NORAD ID | 35901 |
| Date fetched |
Epoch osculation |
Inc. [°] |
Ecc. | RA asc node [hr] |
Arg Peri. [°] |
Mean anom [°] |
Mean motion [rev/day] |
Abs. mag |
| Date fetched |
Epoch osculation |
Inc. [°] |
Ecc. | RA asc node [hr] |
Arg Peri. [°] |
Mean anom [°] |
Mean motion [rev/day] |
Abs. mag |
| 2026 May 07 17:58 | 2026 May 04 04:00:46 | 74.0004 | 0.00136 | 5.6010 | 214.3950 | 145.6373 | 15.34858 | – |
| 2026 May 06 17:57 | 2026 May 04 04:00:46 | 74.0004 | 0.00136 | 5.6010 | 214.3950 | 145.6373 | 15.34858 | – |
| 2026 May 05 17:57 | 2026 May 04 04:00:46 | 74.0004 | 0.00136 | 5.6010 | 214.3950 | 145.6373 | 15.34858 | – |
| 2026 May 04 17:57 | 2026 Apr 24 16:57:37 | 74.0027 | 0.00111 | 6.9534 | 245.5809 | 145.6373 | 15.34858 | – |
| 2026 May 03 17:57 | 2026 Apr 24 16:57:37 | 74.0027 | 0.00111 | 6.9534 | 245.5809 | 145.6373 | 15.34858 | – |
| 2026 May 02 17:57 | 2026 Apr 24 16:57:37 | 74.0027 | 0.00111 | 6.9534 | 245.5809 | 145.6373 | 15.34858 | – |
| 2026 May 01 17:56 | 2026 Apr 24 16:57:37 | 74.0027 | 0.00111 | 6.9534 | 245.5809 | 145.6373 | 15.34858 | – |
| 2026 Apr 30 17:56 | 2026 Apr 24 16:57:37 | 74.0027 | 0.00111 | 6.9534 | 245.5809 | 145.6373 | 15.34858 | – |
| 2026 Apr 29 17:57 | 2026 Apr 20 17:19:20 | 74.0010 | 0.00108 | 7.5212 | 258.7244 | 145.6373 | 15.34858 | – |
| 2026 Apr 28 17:56 | 2026 Apr 20 17:19:20 | 74.0010 | 0.00108 | 7.5212 | 258.7244 | 145.6373 | 15.34858 | – |
| 2026 Apr 27 17:58 | 2026 Apr 20 17:19:20 | 74.0010 | 0.00108 | 7.5212 | 258.7244 | 145.6373 | 15.34858 | – |
| 2026 Apr 26 17:58 | 2026 Apr 20 17:19:20 | 74.0010 | 0.00108 | 7.5212 | 258.7244 | 145.6373 | 15.34858 | – |
| 2026 Apr 25 17:58 | 2026 Apr 20 17:19:20 | 74.0010 | 0.00108 | 7.5212 | 258.7244 | 145.6373 | 15.34858 | – |
| 2026 Apr 24 17:59 | 2026 Apr 20 17:19:20 | 74.0010 | 0.00108 | 7.5212 | 258.7244 | 145.6373 | 15.34858 | – |
| 2026 Apr 23 17:57 | 2026 Apr 18 18:16:05 | 74.0000 | 0.00105 | 7.8003 | 264.9386 | 145.6373 | 15.34858 | – |
| 2026 Apr 22 17:57 | 2026 Apr 18 18:16:05 | 74.0000 | 0.00105 | 7.8003 | 264.9386 | 145.6373 | 15.34858 | – |
| 2026 Apr 21 17:57 | 2026 Apr 18 18:16:05 | 74.0000 | 0.00105 | 7.8003 | 264.9386 | 145.6373 | 15.34858 | – |
| 2026 Apr 20 17:57 | 2026 Apr 18 18:16:05 | 74.0000 | 0.00105 | 7.8003 | 264.9386 | 145.6373 | 15.34858 | – |
| 2026 Apr 19 17:58 | 2026 Apr 18 18:16:05 | 74.0000 | 0.00105 | 7.8003 | 264.9386 | 145.6373 | 15.34858 | – |
| 2026 Apr 18 17:56 | 2026 Apr 12 11:37:54 | 74.0018 | 0.00105 | 8.6931 | 281.6296 | 145.6373 | 15.34858 | – |
| 2026 Apr 16 17:57 | 2026 Apr 12 11:37:54 | 74.0018 | 0.00105 | 8.6931 | 281.6296 | 145.6373 | 15.34858 | – |
| 2026 Apr 14 17:57 | 2026 Apr 12 11:37:54 | 74.0018 | 0.00105 | 8.6931 | 281.6296 | 145.6373 | 15.34858 | – |
| 2026 Apr 13 17:57 | 2026 Apr 12 11:37:54 | 74.0018 | 0.00105 | 8.6931 | 281.6296 | 145.6373 | 15.34858 | – |
| 2026 Apr 12 17:57 | 2026 Apr 06 20:36:44 | 74.0013 | 0.00101 | 9.4922 | 296.2821 | 145.6373 | 15.34858 | – |
| 2026 Apr 11 17:57 | 2026 Apr 06 20:36:44 | 74.0013 | 0.00101 | 9.4922 | 296.2821 | 145.6373 | 15.34858 | – |
| 2026 Apr 10 17:58 | 2026 Apr 06 20:36:44 | 74.0013 | 0.00101 | 9.4922 | 296.2821 | 145.6373 | 15.34858 | – |